Time;durP1;ratioP1;P1;durP2;ratioP2;P2;SDS_P1;SDS_P2;PMS_P1;PMS_P2;Temp;Humidity;BMP_temperature;BMP_pressure;BME280_temperature;BME280_humidity;BME280_pressure;Samples;Min_cycle;Max_cycle;Signal;HPM_P1;HPM_P2
2023/02/18 00:00:27;;;;;;;12.50;3.83;;;;;;;;;;5009157;28;20235;-80
2023/02/18 00:02:54;;;;;;;9.05;2.38;;;;;;;;;;5027044;28;20032;-77
2023/02/18 00:05:21;;;;;;;9.35;2.83;;;;;;;;;;5020750;28;20424;-80
2023/02/18 00:07:47;;;;;;;13.13;3.58;;;;;;;;;;5021131;28;20049;-77
2023/02/18 00:10:14;;;;;;;9.35;3.10;;;;;;;;;;5008903;28;20082;-79
2023/02/18 00:12:40;;;;;;;7.30;2.95;;;;;;;;;;5027923;28;20026;-79
2023/02/18 00:15:08;;;;;;;7.28;2.75;;;;;;;;;;5021869;28;20050;-78
2023/02/18 00:17:34;;;;;;;9.23;3.03;;;;;;;;;;5012106;28;20563;-78
2023/02/18 00:20:00;;;;;;;9.80;3.28;;;;;;;;;;5008384;28;20065;-78
2023/02/18 00:22:26;;;;;;;5.00;2.63;;;;;;;;;;5022055;28;20024;-77
2023/02/18 00:24:52;;;;;;;9.25;2.83;;;;;;;;;;5028744;28;20021;-78
2023/02/18 00:27:18;;;;;;;6.15;2.47;;;;;;;;;;5026914;28;20053;-77
2023/02/18 00:29:44;;;;;;;10.63;2.75;;;;;;;;;;5028762;28;20073;-77
2023/02/18 00:32:10;;;;;;;11.18;3.17;;;;;;;;;;5026294;28;20037;-78
2023/02/18 00:34:37;;;;;;;6.60;2.92;;;;;;;;;;5016238;28;20027;-80
2023/02/18 00:37:03;;;;;;;11.75;3.60;;;;;;;;;;5009211;28;20540;-79
2023/02/18 00:39:29;;;;;;;8.23;2.78;;;;;;;;;;5012349;28;20038;-78
2023/02/18 00:41:55;;;;;;;17.45;3.03;;;;;;;;;;5041265;28;20065;-79
2023/02/18 00:44:21;;;;;;;7.63;2.85;;;;;;;;;;5025995;28;20030;-78
2023/02/18 00:46:48;;;;;;;5.95;2.70;;;;;;;;;;5026824;28;20029;-78
2023/02/18 00:49:14;;;;;;;6.25;2.83;;;;;;;;;;5039237;28;20085;-78
2023/02/18 00:51:40;;;;;;;11.10;2.85;;;;;;;;;;5021797;28;20025;-81
2023/02/18 00:54:06;;;;;;;7.85;2.63;;;;;;;;;;5031731;28;20079;-78
2023/02/18 00:56:33;;;;;;;4.70;2.25;;;;;;;;;;5026311;28;20026;-78
2023/02/18 00:58:59;;;;;;;6.60;2.67;;;;;;;;;;5012484;28;20089;-79
2023/02/18 01:01:26;;;;;;;6.13;2.47;;;;;;;;;;5025768;28;20604;-78
2023/02/18 01:03:52;;;;;;;3.47;2.13;;;;;;;;;;5025647;28;20025;-79
2023/02/18 01:06:18;;;;;;;6.15;2.45;;;;;;;;;;5041934;28;20038;-81
2023/02/18 01:08:44;;;;;;;4.90;2.45;;;;;;;;;;5025192;28;20415;-79
2023/02/18 01:11:11;;;;;;;5.75;2.33;;;;;;;;;;5022454;28;20022;-79
2023/02/18 01:13:38;;;;;;;5.03;2.17;;;;;;;;;;5018177;28;20033;-79
2023/02/18 01:16:04;;;;;;;3.95;2.20;;;;;;;;;;5019624;28;20022;-80
2023/02/18 01:18:30;;;;;;;4.43;2.22;;;;;;;;;;5012772;28;20058;-78
2023/02/18 01:20:56;;;;;;;5.32;2.30;;;;;;;;;;5026494;28;20045;-77
2023/02/18 01:23:23;;;;;;;3.70;2.30;;;;;;;;;;5025522;28;20026;-78
2023/02/18 01:25:49;;;;;;;5.07;2.60;;;;;;;;;;5014915;28;20042;-78
2023/02/18 01:28:16;;;;;;;2.13;1.80;;;;;;;;;;5010627;28;20034;-80
2023/02/18 01:30:42;;;;;;;3.78;2.22;;;;;;;;;;5014606;28;20118;-82
2023/02/18 01:33:08;;;;;;;4.78;2.45;;;;;;;;;;5012679;28;20037;-79
2023/02/18 01:35:37;;;;;;;3.10;2.00;;;;;;;;;;5016193;28;20053;-79
2023/02/18 01:38:03;;;;;;;4.00;1.83;;;;;;;;;;5021548;28;20038;-80
2023/02/18 01:40:30;;;;;;;2.47;1.73;;;;;;;;;;5019427;28;20027;-80
2023/02/18 01:42:56;;;;;;;6.57;2.15;;;;;;;;;;5017514;28;20053;-78
2023/02/18 01:45:28;;;;;;;4.35;1.90;;;;;;;;;;5016059;28;20029;-78
2023/02/18 01:47:54;;;;;;;3.83;1.83;;;;;;;;;;5035964;28;20037;-80
2023/02/18 01:50:21;;;;;;;2.08;1.85;;;;;;;;;;5026251;28;20040;-79
2023/02/18 01:52:47;;;;;;;3.88;3.55;;;;;;;;;;5020433;28;20029;-78
2023/02/18 01:55:13;;;;;;;2.30;1.85;;;;;;;;;;5020790;28;20030;-79
2023/02/18 01:57:39;;;;;;;1.92;1.70;;;;;;;;;;5017309;28;20025;-79
2023/02/18 02:00:07;;;;;;;5.40;1.92;;;;;;;;;;5008507;28;20029;-79
2023/02/18 02:02:36;;;;;;;2.40;1.85;;;;;;;;;;5018903;28;20034;-79
2023/02/18 02:05:02;;;;;;;1.83;1.67;;;;;;;;;;5015035;28;20018;-79
2023/02/18 02:07:28;;;;;;;1.83;1.50;;;;;;;;;;5023317;28;20065;-79
2023/02/18 02:09:56;;;;;;;2.95;1.70;;;;;;;;;;5005975;28;20555;-79
2023/02/18 02:12:28;;;;;;;2.72;1.52;;;;;;;;;;5024074;28;20052;-78
2023/02/18 02:14:54;;;;;;;3.38;1.70;;;;;;;;;;5012665;28;20017;-79
2023/02/18 02:17:40;;;;;;;3.08;1.80;;;;;;;;;;5035871;28;20439;-79
2023/02/18 02:20:06;;;;;;;1.65;1.55;;;;;;;;;;5012261;28;20414;-80
2023/02/18 02:22:51;;;;;;;2.33;1.67;;;;;;;;;;5012915;28;20037;-79
2023/02/18 02:25:17;;;;;;;1.40;1.30;;;;;;;;;;5017636;28;20026;-77
2023/02/18 02:28:00;;;;;;;2.55;1.70;;;;;;;;;;5011577;28;20038;-79
2023/02/18 02:30:26;;;;;;;1.60;1.48;;;;;;;;;;5026737;28;20388;-80
2023/02/18 02:33:11;;;;;;;1.50;1.40;;;;;;;;;;5014833;28;20025;-78
2023/02/18 02:35:44;;;;;;;1.50;1.40;;;;;;;;;;5006378;28;20098;-79
2023/02/18 02:38:27;;;;;;;2.63;1.60;;;;;;;;;;5015158;28;20392;-81
2023/02/18 02:41:00;;;;;;;1.50;1.40;;;;;;;;;;5008235;28;20076;-79
2023/02/18 02:43:29;;;;;;;1.42;1.33;;;;;;;;;;5005687;28;20333;-78
2023/02/18 02:46:01;;;;;;;1.90;1.30;;;;;;;;;;5002131;28;20094;-78
2023/02/18 02:48:30;;;;;;;3.35;1.40;;;;;;;;;;5011913;28;20102;-80
2023/02/18 02:51:15;;;;;;;2.13;1.30;;;;;;;;;;5014638;28;20062;-79
2023/02/18 02:53:42;;;;;;;1.50;1.40;;;;;;;;;;5012898;28;20048;-79
2023/02/18 02:56:18;;;;;;;2.45;1.40;;;;;;;;;;5002396;28;20035;-80
2023/02/18 02:58:45;;;;;;;1.58;1.48;;;;;;;;;;5010045;28;20466;-80
2023/02/18 03:01:19;;;;;;;4.05;1.55;;;;;;;;;;5013300;28;20100;-79
2023/02/18 03:04:01;;;;;;;3.67;1.52;;;;;;;;;;5010897;28;20030;-80
2023/02/18 03:06:46;;;;;;;5.45;1.83;;;;;;;;;;5016274;28;20106;-81
2023/02/18 03:09:38;;;;;;;3.13;1.77;;;;;;;;;;5012552;28;20113;-78
2023/02/18 03:12:04;;;;;;;5.68;2.22;;;;;;;;;;5009002;28;20624;-79
2023/02/18 03:14:38;;;;;;;4.03;1.83;;;;;;;;;;5025568;28;20029;-79
2023/02/18 03:17:23;;;;;;;2.50;1.65;;;;;;;;;;5012395;28;20045;-79
2023/02/18 03:19:52;;;;;;;7.73;2.27;;;;;;;;;;5023897;28;20045;-80
2023/02/18 03:22:21;;;;;;;7.43;2.40;;;;;;;;;;5006689;28;20339;-80
2023/02/18 03:24:49;;;;;;;4.97;2.05;;;;;;;;;;5013602;28;20033;-79
2023/02/18 03:27:18;;;;;;;5.28;2.08;;;;;;;;;;5003679;28;20022;-79
2023/02/18 03:29:45;;;;;;;6.88;2.30;;;;;;;;;;5026746;28;20022;-79
2023/02/18 03:32:13;;;;;;;6.38;2.03;;;;;;;;;;5004118;28;20084;-80
2023/02/18 03:34:45;;;;;;;7.97;2.45;;;;;;;;;;5010217;28;20477;-79
2023/02/18 03:37:12;;;;;;;5.18;2.33;;;;;;;;;;5027814;28;20022;-79
2023/02/18 03:39:40;;;;;;;8.55;2.40;;;;;;;;;;5030186;28;20021;-81
2023/02/18 03:42:06;;;;;;;9.50;2.22;;;;;;;;;;5014128;28;20037;-80
2023/02/18 03:44:32;;;;;;;12.90;2.70;;;;;;;;;;5019145;28;20018;-80
2023/02/18 03:46:59;;;;;;;8.07;3.00;;;;;;;;;;5018926;28;20153;-79
2023/02/18 03:49:25;;;;;;;7.53;2.72;;;;;;;;;;5015793;28;20101;-79
2023/02/18 03:51:51;;;;;;;6.03;2.65;;;;;;;;;;5018159;28;20113;-78
2023/02/18 03:54:17;;;;;;;7.50;3.38;;;;;;;;;;5022993;28;20034;-79
2023/02/18 03:56:43;;;;;;;5.93;3.03;;;;;;;;;;5022817;28;20041;-80
2023/02/18 03:59:11;;;;;;;8.05;2.50;;;;;;;;;;5019032;28;20026;-80
2023/02/18 04:01:37;;;;;;;7.82;2.65;;;;;;;;;;5019002;28;20520;-79
2023/02/18 04:04:03;;;;;;;6.55;2.38;;;;;;;;;;5021686;28;20380;-79
2023/02/18 04:06:29;;;;;;;6.15;2.33;;;;;;;;;;5017508;28;20033;-79
2023/02/18 04:08:55;;;;;;;4.00;2.35;;;;;;;;;;5017015;28;20022;-78
2023/02/18 04:11:21;;;;;;;11.43;3.47;;;;;;;;;;5020604;28;20022;-79
2023/02/18 04:13:47;;;;;;;11.35;3.28;;;;;;;;;;5023012;28;20022;-79
2023/02/18 04:16:13;;;;;;;6.68;2.88;;;;;;;;;;5033058;28;20030;-80
2023/02/18 04:18:39;;;;;;;6.80;2.50;;;;;;;;;;5013617;28;20369;-79
2023/02/18 04:21:05;;;;;;;8.40;2.80;;;;;;;;;;5014666;28;20068;-79
2023/02/18 04:23:31;;;;;;;8.85;3.33;;;;;;;;;;5024751;28;20026;-78
2023/02/18 04:25:57;;;;;;;10.50;2.75;;;;;;;;;;5015487;28;20433;-80
2023/02/18 04:28:24;;;;;;;5.28;2.45;;;;;;;;;;5028799;28;20027;-79
2023/02/18 04:30:50;;;;;;;10.50;3.45;;;;;;;;;;5014528;28;20121;-79
2023/02/18 04:33:16;;;;;;;2.97;2.10;;;;;;;;;;5022458;28;20076;-79
2023/02/18 04:35:42;;;;;;;9.30;2.67;;;;;;;;;;5009573;28;20037;-79
2023/02/18 04:38:09;;;;;;;10.10;2.65;;;;;;;;;;5030411;28;20025;-78
2023/02/18 04:40:35;;;;;;;6.10;3.13;;;;;;;;;;5022811;28;20272;-80
2023/02/18 04:43:01;;;;;;;11.20;2.53;;;;;;;;;;5004843;28;20751;-79
2023/02/18 04:45:28;;;;;;;6.32;2.90;;;;;;;;;;5014841;28;20026;-80
2023/02/18 04:47:54;;;;;;;3.65;2.60;;;;;;;;;;5017026;28;20022;-80
2023/02/18 04:50:21;;;;;;;9.95;2.60;;;;;;;;;;5028492;28;20033;-80
2023/02/18 04:52:48;;;;;;;6.97;2.92;;;;;;;;;;5019299;28;20033;-79
2023/02/18 04:55:14;;;;;;;6.30;2.40;;;;;;;;;;5013251;28;20030;-80
2023/02/18 04:57:40;;;;;;;7.03;2.80;;;;;;;;;;5017915;28;20022;-79
2023/02/18 05:00:07;;;;;;;9.40;2.45;;;;;;;;;;5009365;28;20045;-79
2023/02/18 05:02:34;;;;;;;6.90;2.40;;;;;;;;;;5012487;28;20030;-79
2023/02/18 05:05:00;;;;;;;5.55;2.33;;;;;;;;;;5027752;28;20053;-79
2023/02/18 05:07:26;;;;;;;11.77;2.92;;;;;;;;;;5008670;28;20032;-83
2023/02/18 05:09:52;;;;;;;6.65;2.35;;;;;;;;;;5013588;28;20025;-80
2023/02/18 05:12:19;;;;;;;10.82;3.38;;;;;;;;;;5029066;28;20028;-78
2023/02/18 05:14:45;;;;;;;9.23;3.28;;;;;;;;;;5020889;28;20030;-78
2023/02/18 05:17:11;;;;;;;7.80;2.78;;;;;;;;;;5030081;28;20033;-78
2023/02/18 05:19:37;;;;;;;9.73;3.22;;;;;;;;;;5032179;28;20140;-78
2023/02/18 05:22:03;;;;;;;10.93;3.63;;;;;;;;;;5015166;28;20034;-79
2023/02/18 05:24:29;;;;;;;5.95;2.13;;;;;;;;;;5013933;28;20029;-80
2023/02/18 05:26:55;;;;;;;10.98;2.60;;;;;;;;;;5016606;28;20027;-79
2023/02/18 05:29:21;;;;;;;4.95;2.97;;;;;;;;;;5009682;28;20089;-80
2023/02/18 05:31:47;;;;;;;7.10;2.63;;;;;;;;;;5003201;28;20048;-79
2023/02/18 05:34:13;;;;;;;5.45;2.22;;;;;;;;;;5013298;28;20916;-78
2023/02/18 05:36:39;;;;;;;7.80;3.17;;;;;;;;;;5016239;28;20053;-79
2023/02/18 05:39:05;;;;;;;9.25;2.97;;;;;;;;;;5008117;28;20031;-81
2023/02/18 05:41:31;;;;;;;5.68;2.08;;;;;;;;;;5009854;28;20568;-80
2023/02/18 05:46:42;;;;;;;8.85;3.30;;;;;;;;;;5010062;28;20082;-80
2023/02/18 05:49:08;;;;;;;6.82;3.33;;;;;;;;;;5014017;28;20029;-79
2023/02/18 05:51:34;;;;;;;9.00;2.40;;;;;;;;;;5036267;28;20029;-79
2023/02/18 05:54:00;;;;;;;10.88;4.10;;;;;;;;;;5018850;28;20022;-78
2023/02/18 05:56:26;;;;;;;5.25;2.80;;;;;;;;;;5021333;28;20525;-79
2023/02/18 05:58:52;;;;;;;11.27;2.85;;;;;;;;;;5022443;28;20045;-79
2023/02/18 06:01:18;;;;;;;6.72;2.22;;;;;;;;;;5018787;28;20018;-80
2023/02/18 06:03:44;;;;;;;6.53;3.03;;;;;;;;;;5017613;28;20523;-79
2023/02/18 06:06:10;;;;;;;14.02;3.20;;;;;;;;;;5017908;28;20017;-79
2023/02/18 06:08:37;;;;;;;6.43;2.28;;;;;;;;;;5024107;28;20030;-79
2023/02/18 06:11:03;;;;;;;6.30;1.98;;;;;;;;;;5009278;28;20034;-80
2023/02/18 06:13:29;;;;;;;9.00;2.55;;;;;;;;;;5025931;28;20030;-80
2023/02/18 06:15:55;;;;;;;5.35;2.20;;;;;;;;;;5018036;28;20378;-79
2023/02/18 06:18:21;;;;;;;7.65;2.85;;;;;;;;;;5032210;28;20041;-79
2023/02/18 06:20:48;;;;;;;3.85;2.30;;;;;;;;;;5021044;28;20559;-80
2023/02/18 06:23:14;;;;;;;6.45;2.25;;;;;;;;;;5011887;28;20050;-81
2023/02/18 06:25:42;;;;;;;6.50;2.25;;;;;;;;;;5015058;28;20069;-79
2023/02/18 06:28:08;;;;;;;6.35;2.50;;;;;;;;;;5010521;28;20019;-80
2023/02/18 06:30:34;;;;;;;10.32;2.60;;;;;;;;;;5009935;28;20062;-79
2023/02/18 06:33:03;;;;;;;11.90;2.83;;;;;;;;;;5007481;28;20461;-79
2023/02/18 06:35:29;;;;;;;9.80;2.80;;;;;;;;;;5011215;28;20025;-79
2023/02/18 06:37:55;;;;;;;7.60;2.30;;;;;;;;;;5029692;28;20028;-79
2023/02/18 06:40:21;;;;;;;6.30;2.15;;;;;;;;;;5036019;28;20449;-79
2023/02/18 06:42:47;;;;;;;11.05;2.28;;;;;;;;;;5010802;28;20101;-79
2023/02/18 06:45:13;;;;;;;8.45;2.53;;;;;;;;;;5020547;28;20036;-79
2023/02/18 06:47:39;;;;;;;7.68;2.22;;;;;;;;;;5020472;28;20019;-80
2023/02/18 06:50:06;;;;;;;10.10;3.58;;;;;;;;;;5030126;28;20056;-79
2023/02/18 06:52:33;;;;;;;4.82;2.30;;;;;;;;;;5015164;28;20056;-79
2023/02/18 06:54:59;;;;;;;8.20;3.40;;;;;;;;;;5018864;28;20018;-78
2023/02/18 06:57:25;;;;;;;7.07;2.55;;;;;;;;;;5013190;28;20089;-79
2023/02/18 06:59:51;;;;;;;11.63;2.83;;;;;;;;;;5004489;28;20512;-80
2023/02/18 07:02:17;;;;;;;8.75;3.83;;;;;;;;;;5023562;28;20030;-78
2023/02/18 07:04:45;;;;;;;9.02;2.28;;;;;;;;;;5016059;28;20026;-79
2023/02/18 07:07:11;;;;;;;8.43;2.72;;;;;;;;;;5023915;28;20029;-78
2023/02/18 07:09:37;;;;;;;11.60;3.70;;;;;;;;;;5014940;28;20026;-78
2023/02/18 07:12:03;;;;;;;8.80;2.38;;;;;;;;;;5012958;28;20398;-79
2023/02/18 07:14:29;;;;;;;4.22;2.10;;;;;;;;;;5008119;28;20026;-81
2023/02/18 07:16:55;;;;;;;10.90;2.83;;;;;;;;;;5016960;28;20022;-80
2023/02/18 07:19:21;;;;;;;7.20;2.60;;;;;;;;;;5008498;28;20112;-78
2023/02/18 07:21:48;;;;;;;9.18;2.63;;;;;;;;;;5012183;28;20391;-80
2023/02/18 07:24:14;;;;;;;12.23;3.58;;;;;;;;;;5005353;28;20018;-79
2023/02/18 07:26:40;;;;;;;10.18;2.75;;;;;;;;;;5014690;28;20049;-79
2023/02/18 07:29:06;;;;;;;5.82;2.65;;;;;;;;;;5015470;28;20374;-80
2023/02/18 07:31:32;;;;;;;12.23;3.20;;;;;;;;;;5009716;28;20278;-78
2023/02/18 07:33:58;;;;;;;10.45;2.92;;;;;;;;;;5020415;28;20030;-78
2023/02/18 07:36:24;;;;;;;8.70;3.03;;;;;;;;;;5012731;28;20022;-79
2023/02/18 07:38:50;;;;;;;6.85;2.58;;;;;;;;;;5026923;28;20542;-79
2023/02/18 07:41:20;;;;;;;9.57;3.15;;;;;;;;;;5006827;28;20508;-80
2023/02/18 07:43:47;;;;;;;12.05;4.07;;;;;;;;;;5017081;28;20034;-80
2023/02/18 07:46:13;;;;;;;7.93;2.20;;;;;;;;;;5027050;28;20033;-80
2023/02/18 07:48:39;;;;;;;9.60;2.30;;;;;;;;;;5028532;28;20085;-78
2023/02/18 07:51:06;;;;;;;4.75;2.13;;;;;;;;;;5022133;28;20046;-79
2023/02/18 07:53:32;;;;;;;8.40;3.42;;;;;;;;;;5028372;28;20508;-82
2023/02/18 07:55:59;;;;;;;6.95;2.42;;;;;;;;;;5025113;28;20035;-79
2023/02/18 07:58:29;;;;;;;11.10;2.42;;;;;;;;;;5024506;28;20029;-77
2023/02/18 08:00:56;;;;;;;5.30;2.15;;;;;;;;;;5042039;28;20038;-78
2023/02/18 08:03:23;;;;;;;3.55;2.20;;;;;;;;;;5015775;28;20026;-77
2023/02/18 08:05:49;;;;;;;5.57;2.13;;;;;;;;;;5017514;28;20084;-78
2023/02/18 08:08:19;;;;;;;13.55;2.60;;;;;;;;;;5013634;28;20056;-80
2023/02/18 08:10:45;;;;;;;6.75;2.40;;;;;;;;;;5026600;28;20026;-79
2023/02/18 08:13:11;;;;;;;10.30;3.15;;;;;;;;;;5018436;28;20022;-77
2023/02/18 08:15:38;;;;;;;6.85;2.20;;;;;;;;;;5012464;28;20022;-79
2023/02/18 08:18:04;;;;;;;9.02;2.55;;;;;;;;;;5029102;28;20030;-78
2023/02/18 08:20:31;;;;;;;9.93;2.78;;;;;;;;;;5016869;28;20033;-79
2023/02/18 08:22:57;;;;;;;10.95;3.33;;;;;;;;;;5018380;28;20034;-79
2023/02/18 08:25:23;;;;;;;7.28;2.75;;;;;;;;;;5029280;28;20488;-79
2023/02/18 08:27:49;;;;;;;8.60;2.50;;;;;;;;;;5023676;28;20452;-81
2023/02/18 08:30:15;;;;;;;11.25;3.25;;;;;;;;;;5010023;28;20448;-79
2023/02/18 08:32:41;;;;;;;12.77;3.00;;;;;;;;;;5011571;28;20034;-79
2023/02/18 08:35:07;;;;;;;10.63;2.47;;;;;;;;;;5014199;28;20034;-78
2023/02/18 08:37:34;;;;;;;15.68;3.00;;;;;;;;;;5009780;28;20041;-79
2023/02/18 08:40:01;;;;;;;11.23;3.97;;;;;;;;;;5021648;28;20036;-78
2023/02/18 08:42:27;;;;;;;16.95;3.92;;;;;;;;;;5014522;28;20058;-77
2023/02/18 08:44:53;;;;;;;9.15;2.88;;;;;;;;;;5026021;28;20022;-77
2023/02/18 08:47:19;;;;;;;9.15;3.42;;;;;;;;;;5026544;28;20018;-79
2023/02/18 08:49:45;;;;;;;18.92;4.25;;;;;;;;;;5017149;28;20014;-77
2023/02/18 08:52:11;;;;;;;12.50;3.72;;;;;;;;;;5028113;28;20021;-79
2023/02/18 08:54:37;;;;;;;12.82;2.72;;;;;;;;;;5025920;28;20032;-78
2023/02/18 08:57:03;;;;;;;10.82;3.25;;;;;;;;;;5015541;28;20028;-79
2023/02/18 08:59:29;;;;;;;11.50;3.22;;;;;;;;;;5008317;28;20036;-80
2023/02/18 09:01:56;;;;;;;11.77;3.00;;;;;;;;;;5014355;28;20034;-78
2023/02/18 09:04:22;;;;;;;15.75;3.95;;;;;;;;;;5018066;28;20041;-79
2023/02/18 09:06:49;;;;;;;11.40;4.22;;;;;;;;;;5021460;28;20028;-78
2023/02/18 09:09:15;;;;;;;9.82;3.15;;;;;;;;;;5018144;28;20054;-77
2023/02/18 09:11:41;;;;;;;12.85;3.58;;;;;;;;;;5017779;28;20017;-79
2023/02/18 09:14:07;;;;;;;10.10;2.83;;;;;;;;;;5027078;28;20053;-80
2023/02/18 09:16:33;;;;;;;9.73;3.00;;;;;;;;;;5023617;28;20029;-78
2023/02/18 09:18:59;;;;;;;11.73;3.15;;;;;;;;;;5025668;28;20036;-78
2023/02/18 09:21:26;;;;;;;15.48;3.75;;;;;;;;;;5013905;28;20038;-79
2023/02/18 09:23:52;;;;;;;10.32;2.80;;;;;;;;;;5025751;28;20056;-79
2023/02/18 09:26:21;;;;;;;11.73;3.45;;;;;;;;;;5032760;28;20026;-78
2023/02/18 09:28:48;;;;;;;9.68;3.80;;;;;;;;;;5021599;28;20055;-78
2023/02/18 09:31:15;;;;;;;9.85;3.35;;;;;;;;;;5011268;28;20029;-79
2023/02/18 09:33:43;;;;;;;12.23;3.45;;;;;;;;;;5022371;28;20109;-79
2023/02/18 09:36:09;;;;;;;13.80;3.78;;;;;;;;;;5021508;28;20036;-78
2023/02/18 09:38:35;;;;;;;13.07;3.20;;;;;;;;;;5020755;28;20033;-79
2023/02/18 09:41:03;;;;;;;10.68;3.03;;;;;;;;;;5018238;28;20063;-77
2023/02/18 09:43:45;;;;;;;9.15;2.70;;;;;;;;;;5018511;28;20022;-78
2023/02/18 09:46:23;;;;;;;9.18;3.33;;;;;;;;;;5020955;28;20025;-79
2023/02/18 09:48:51;;;;;;;15.48;3.60;;;;;;;;;;5022704;28;20128;-78
2023/02/18 09:51:17;;;;;;;18.55;4.25;;;;;;;;;;5022166;28;20095;-79
2023/02/18 09:53:44;;;;;;;11.60;3.50;;;;;;;;;;5038915;28;20017;-79
2023/02/18 09:56:14;;;;;;;12.95;3.75;;;;;;;;;;5022481;28;20027;-78
2023/02/18 09:58:41;;;;;;;8.40;3.80;;;;;;;;;;5021545;28;20465;-77
2023/02/18 10:01:34;;;;;;;9.32;3.97;;;;;;;;;;5023758;28;20029;-77
2023/02/18 10:04:03;;;;;;;13.25;3.80;;;;;;;;;;5021212;28;20405;-81
2023/02/18 10:06:31;;;;;;;15.57;4.05;;;;;;;;;;5024191;28;20030;-78
2023/02/18 10:08:59;;;;;;;11.60;3.65;;;;;;;;;;5021008;28;20032;-79
2023/02/18 10:11:35;;;;;;;14.18;3.85;;;;;;;;;;5031433;28;20029;-78
2023/02/18 10:14:02;;;;;;;12.32;4.90;;;;;;;;;;5025368;28;20083;-78
2023/02/18 10:16:29;;;;;;;9.38;3.67;;;;;;;;;;5019895;28;20013;-78
2023/02/18 10:18:57;;;;;;;7.57;2.85;;;;;;;;;;5030172;28;20025;-78
2023/02/18 10:21:34;;;;;;;8.27;3.30;;;;;;;;;;5025486;28;20044;-77
2023/02/18 10:24:16;;;;;;;14.43;3.38;;;;;;;;;;5041264;28;20121;-79
2023/02/18 10:26:42;;;;;;;12.60;3.85;;;;;;;;;;5017782;28;20389;-78
2023/02/18 10:29:19;;;;;;;10.65;3.35;;;;;;;;;;5025631;28;20053;-80
2023/02/18 10:31:52;;;;;;;11.35;2.95;;;;;;;;;;5014078;28;20531;-77
2023/02/18 10:34:24;;;;;;;12.20;3.20;;;;;;;;;;5019499;28;20029;-79
2023/02/18 10:37:16;;;;;;;9.40;2.80;;;;;;;;;;5021857;28;20395;-79
2023/02/18 10:39:59;;;;;;;13.18;4.78;;;;;;;;;;5019361;28;20048;-79
2023/02/18 10:42:27;;;;;;;5.20;2.45;;;;;;;;;;5022918;28;20141;-78
2023/02/18 10:45:18;;;;;;;11.02;4.07;;;;;;;;;;5022904;28;20072;-77
2023/02/18 10:47:44;;;;;;;13.05;3.25;;;;;;;;;;5016087;28;20064;-79
2023/02/18 10:50:12;;;;;;;11.48;3.22;;;;;;;;;;5024567;28;20076;-80
2023/02/18 10:52:43;;;;;;;13.13;3.38;;;;;;;;;;5018170;28;20069;-76
2023/02/18 10:55:11;;;;;;;13.05;4.10;;;;;;;;;;5029867;28;20034;-78
2023/02/18 10:57:53;;;;;;;11.18;4.30;;;;;;;;;;5024035;28;20037;-78
2023/02/18 11:00:25;;;;;;;11.10;3.28;;;;;;;;;;5022701;28;20026;-78
2023/02/18 11:03:03;;;;;;;18.40;3.58;;;;;;;;;;5016900;28;20045;-77
2023/02/18 11:05:30;;;;;;;11.63;3.08;;;;;;;;;;5017912;28;20057;-78
2023/02/18 11:07:57;;;;;;;10.30;2.92;;;;;;;;;;5038541;28;20182;-77
2023/02/18 11:10:30;;;;;;;9.60;3.30;;;;;;;;;;5023334;28;20491;-78
2023/02/18 11:13:01;;;;;;;8.90;3.42;;;;;;;;;;5016228;28;20069;-77
2023/02/18 11:15:28;;;;;;;13.80;3.10;;;;;;;;;;5026061;28;20435;-77
2023/02/18 11:17:55;;;;;;;11.65;3.05;;;;;;;;;;5026651;28;20036;-76
2023/02/18 11:20:27;;;;;;;8.50;2.90;;;;;;;;;;5019137;28;20054;-78
2023/02/18 11:22:57;;;;;;;11.93;3.60;;;;;;;;;;5023846;28;20021;-77
2023/02/18 11:25:24;;;;;;;10.88;2.97;;;;;;;;;;5022633;28;20029;-77
2023/02/18 11:27:52;;;;;;;14.73;3.30;;;;;;;;;;5012819;28;20068;-77
2023/02/18 11:30:32;;;;;;;9.35;3.70;;;;;;;;;;5033176;28;20029;-78
2023/02/18 11:33:21;;;;;;;11.45;4.00;;;;;;;;;;5022099;28;20042;-77
2023/02/18 11:35:50;;;;;;;11.05;3.38;;;;;;;;;;5024017;28;20110;-78
2023/02/18 11:38:33;;;;;;;11.77;3.60;;;;;;;;;;5023766;28;20038;-77
2023/02/18 11:41:03;;;;;;;10.38;3.10;;;;;;;;;;5025692;28;20029;-78
2023/02/18 11:43:30;;;;;;;17.45;4.35;;;;;;;;;;5018855;28;20085;-77
2023/02/18 11:46:13;;;;;;;14.52;3.72;;;;;;;;;;5039855;28;20025;-78
2023/02/18 11:48:40;;;;;;;13.20;3.88;;;;;;;;;;5037918;28;20023;-76
2023/02/18 11:51:06;;;;;;;11.02;3.70;;;;;;;;;;5020477;28;20029;-78
2023/02/18 11:53:33;;;;;;;10.82;3.00;;;;;;;;;;5028340;28;20523;-78
2023/02/18 11:56:15;;;;;;;16.00;3.40;;;;;;;;;;5033786;28;20030;-77
2023/02/18 11:58:44;;;;;;;18.23;3.67;;;;;;;;;;5027499;28;20029;-77
2023/02/18 12:01:29;;;;;;;12.95;3.50;;;;;;;;;;5027679;28;20131;-78
2023/02/18 12:03:57;;;;;;;14.43;3.40;;;;;;;;;;5028569;28;20041;-79
2023/02/18 12:06:35;;;;;;;11.55;3.30;;;;;;;;;;5031825;28;20033;-78
2023/02/18 12:09:04;;;;;;;18.35;4.28;;;;;;;;;;5020962;28;20033;-78
2023/02/18 12:11:33;;;;;;;11.30;3.83;;;;;;;;;;5027556;28;20026;-77
2023/02/18 12:14:00;;;;;;;9.40;4.10;;;;;;;;;;5013287;28;20041;-78
2023/02/18 12:16:39;;;;;;;9.00;2.90;;;;;;;;;;5023612;28;20041;-79
2023/02/18 12:19:28;;;;;;;13.82;4.05;;;;;;;;;;5024907;28;20495;-77
2023/02/18 12:22:00;;;;;;;12.90;4.10;;;;;;;;;;5027537;28;20094;-79
2023/02/18 12:24:27;;;;;;;7.40;4.00;;;;;;;;;;5026526;28;20072;-76
2023/02/18 12:27:11;;;;;;;13.57;4.07;;;;;;;;;;5028552;28;20021;-77
2023/02/18 12:29:43;;;;;;;6.97;2.65;;;;;;;;;;5016431;28;20048;-78
2023/02/18 12:32:09;;;;;;;6.72;2.97;;;;;;;;;;5034514;28;20030;-77
2023/02/18 12:34:47;;;;;;;6.93;3.45;;;;;;;;;;5028036;28;20030;-78
2023/02/18 12:37:13;;;;;;;7.43;3.67;;;;;;;;;;5017649;28;20030;-77
2023/02/18 12:39:58;;;;;;;7.57;2.45;;;;;;;;;;5013906;28;20045;-76
2023/02/18 12:42:30;;;;;;;7.03;2.90;;;;;;;;;;5021597;28;20037;-78
2023/02/18 12:44:56;;;;;;;7.13;2.97;;;;;;;;;;5034839;28;20088;-77
2023/02/18 12:47:30;;;;;;;10.55;2.53;;;;;;;;;;5033795;28;20026;-78
2023/02/18 12:49:56;;;;;;;4.72;2.70;;;;;;;;;;5028449;28;20037;-79
2023/02/18 12:52:29;;;;;;;7.70;2.60;;;;;;;;;;5028584;28;20040;-76
2023/02/18 12:55:28;;;;;;;7.90;2.50;;;;;;;;;;5023484;28;20022;-77
2023/02/18 12:58:13;;;;;;;8.82;3.03;;;;;;;;;;5005021;28;20042;-78
2023/02/18 13:00:39;;;;;;;4.32;2.22;;;;;;;;;;5012387;28;20049;-81
2023/02/18 13:03:22;;;;;;;8.48;2.55;;;;;;;;;;5017800;28;20026;-77
2023/02/18 13:06:00;;;;;;;7.47;3.47;;;;;;;;;;5042101;28;20342;-80
2023/02/18 13:08:36;;;;;;;6.88;2.53;;;;;;;;;;5032136;28;20064;-77
2023/02/18 13:11:02;;;;;;;5.95;2.55;;;;;;;;;;5023006;28;20022;-79
2023/02/18 13:13:33;;;;;;;8.10;2.85;;;;;;;;;;5028134;28;20396;-76
2023/02/18 13:16:05;;;;;;;5.22;2.33;;;;;;;;;;5027975;28;20468;-78
2023/02/18 13:18:33;;;;;;;6.68;2.40;;;;;;;;;;5022472;28;20037;-77
2023/02/18 13:21:00;;;;;;;6.85;2.50;;;;;;;;;;5021400;28;20058;-78
2023/02/18 13:23:31;;;;;;;12.07;2.88;;;;;;;;;;5025530;28;20064;-78
2023/02/18 13:25:59;;;;;;;8.07;2.35;;;;;;;;;;5019228;28;20054;-77
2023/02/18 13:28:34;;;;;;;2.72;1.80;;;;;;;;;;5029014;28;20022;-76
2023/02/18 13:31:00;;;;;;;2.45;1.95;;;;;;;;;;5018626;28;20469;-77
2023/02/18 13:33:59;;;;;;;5.97;2.67;;;;;;;;;;5028778;28;20097;-77
2023/02/18 13:36:40;;;;;;;5.30;2.45;;;;;;;;;;4993086;28;20038;-76
2023/02/18 13:39:18;;;;;;;6.88;3.30;;;;;;;;;;5014789;28;20040;-77
2023/02/18 13:41:45;;;;;;;8.07;2.40;;;;;;;;;;5035793;28;20079;-78
2023/02/18 13:44:21;;;;;;;8.73;3.40;;;;;;;;;;5028245;28;20033;-76
2023/02/18 13:46:51;;;;;;;9.30;4.07;;;;;;;;;;5034244;28;20025;-77
2023/02/18 13:49:31;;;;;;;6.47;3.17;;;;;;;;;;5029555;28;20029;-77
2023/02/18 13:51:58;;;;;;;5.30;2.83;;;;;;;;;;5027713;28;20100;-78
2023/02/18 13:54:25;;;;;;;4.47;2.25;;;;;;;;;;5028141;28;20045;-77
2023/02/18 13:57:02;;;;;;;5.35;2.30;;;;;;;;;;5031598;28;20484;-78
2023/02/18 13:59:31;;;;;;;2.97;2.42;;;;;;;;;;5019327;28;20037;-78
2023/02/18 14:02:08;;;;;;;1.60;1.50;;;;;;;;;;5027694;28;20021;-77
2023/02/18 14:04:36;;;;;;;5.65;1.85;;;;;;;;;;5027074;28;20380;-77
2023/02/18 14:07:18;;;;;;;1.70;1.42;;;;;;;;;;5025976;28;20026;-77
2023/02/18 14:09:44;;;;;;;3.20;1.60;;;;;;;;;;5020590;28;20044;-78
2023/02/18 14:12:29;;;;;;;3.20;1.85;;;;;;;;;;5027719;28;20032;-76
2023/02/18 14:14:55;;;;;;;1.73;1.60;;;;;;;;;;5007570;28;20445;-77
2023/02/18 14:17:21;;;;;;;2.90;1.90;;;;;;;;;;5023059;28;20048;-77
2023/02/18 14:20:14;;;;;;;3.17;1.85;;;;;;;;;;5036476;28;20060;-77
2023/02/18 14:22:44;;;;;;;3.05;2.03;;;;;;;;;;5021505;28;20072;-77
2023/02/18 14:25:10;;;;;;;5.45;2.03;;;;;;;;;;5023120;28;20034;-80
2023/02/18 14:27:38;;;;;;;5.88;2.10;;;;;;;;;;5023898;28;20026;-79
2023/02/18 14:30:06;;;;;;;3.45;1.90;;;;;;;;;;5033403;28;20169;-79
2023/02/18 14:32:33;;;;;;;3.05;1.73;;;;;;;;;;5018406;28;20101;-79
2023/02/18 14:35:18;;;;;;;2.72;2.45;;;;;;;;;;5027067;28;20030;-79
2023/02/18 14:37:51;;;;;;;3.95;2.30;;;;;;;;;;5021312;28;20022;-79
2023/02/18 14:40:26;;;;;;;4.95;2.88;;;;;;;;;;5043862;28;20300;-79
2023/02/18 14:43:05;;;;;;;5.10;2.10;;;;;;;;;;5028741;28;20037;-79
2023/02/18 14:45:50;;;;;;;4.43;2.10;;;;;;;;;;5025738;28;20033;-78
2023/02/18 14:48:18;;;;;;;3.78;2.83;;;;;;;;;;5023196;28;20029;-77
2023/02/18 14:50:48;;;;;;;7.35;2.25;;;;;;;;;;5022439;28;20033;-78
2023/02/18 14:53:17;;;;;;;6.78;3.10;;;;;;;;;;5026578;28;20030;-77